Time;durP1;ratioP1;P1;durP2;ratioP2;P2;SDS_P1;SDS_P2;PMS_P1;PMS_P2;Temp;Humidity;BMP_temperature;BMP_pressure;BME280_temperature;BME280_humidity;BME280_pressure;Samples;Min_cycle;Max_cycle;Signal;HPM_P1;HPM_P2
2022/03/07 00:01:21;;;;;;;13.57;8.93;;;;;;;;;;5068381;28;20271;-57
2022/03/07 00:03:48;;;;;;;11.53;8.57;;;;;;;;;;5054023;28;20200;-57
2022/03/07 00:06:14;;;;;;;9.60;7.60;;;;;;;;;;5065696;28;20191;-57
2022/03/07 00:08:40;;;;;;;13.13;8.80;;;;;;;;;;5072627;28;20198;-57
2022/03/07 00:11:07;;;;;;;12.27;7.93;;;;;;;;;;5055028;28;20223;-57
2022/03/07 00:13:33;;;;;;;12.17;8.97;;;;;;;;;;5031751;28;20271;-57
2022/03/07 00:16:01;;;;;;;10.27;7.63;;;;;;;;;;5066497;28;20719;-57
2022/03/07 00:18:27;;;;;;;10.70;8.20;;;;;;;;;;5074351;28;20264;-57
2022/03/07 00:20:55;;;;;;;11.63;8.07;;;;;;;;;;5050391;28;20260;-57
2022/03/07 00:23:21;;;;;;;11.00;7.80;;;;;;;;;;5065911;28;20271;-57
2022/03/07 00:25:48;;;;;;;12.93;8.10;;;;;;;;;;5047869;28;20590;-57
2022/03/07 00:28:16;;;;;;;10.20;7.60;;;;;;;;;;5046456;28;20569;-57
2022/03/07 00:30:43;;;;;;;11.40;7.97;;;;;;;;;;5049490;28;20647;-57
2022/03/07 00:33:11;;;;;;;11.33;8.37;;;;;;;;;;5049223;28;20219;-57
2022/03/07 00:35:37;;;;;;;10.33;7.10;;;;;;;;;;5045186;28;20207;-57
2022/03/07 00:38:04;;;;;;;8.37;6.60;;;;;;;;;;5067499;28;20532;-57
2022/03/07 00:40:30;;;;;;;10.63;7.07;;;;;;;;;;5045957;28;20492;-57
2022/03/07 00:42:56;;;;;;;9.27;7.50;;;;;;;;;;5058348;28;20207;-57
2022/03/07 00:45:23;;;;;;;7.57;6.73;;;;;;;;;;5046199;28;20322;-57
2022/03/07 00:47:49;;;;;;;10.13;6.87;;;;;;;;;;5050507;28;20195;-57
2022/03/07 00:50:15;;;;;;;9.53;7.27;;;;;;;;;;5053981;28;20188;-57
2022/03/07 00:52:41;;;;;;;9.33;7.20;;;;;;;;;;5086885;28;20582;-57
2022/03/07 00:55:08;;;;;;;9.20;6.73;;;;;;;;;;5053839;28;20200;-57
2022/03/07 00:57:37;;;;;;;9.70;6.70;;;;;;;;;;5070152;28;20675;-57
2022/03/07 01:00:06;;;;;;;10.43;7.20;;;;;;;;;;5063247;28;20180;-57
2022/03/07 01:02:33;;;;;;;12.30;7.20;;;;;;;;;;5067419;28;20457;-57
2022/03/07 01:05:00;;;;;;;10.47;7.57;;;;;;;;;;5068434;28;20181;-57
2022/03/07 01:07:27;;;;;;;7.67;6.87;;;;;;;;;;5052396;28;20556;-57
2022/03/07 01:09:57;;;;;;;8.57;7.10;;;;;;;;;;5045184;28;20180;-57
2022/03/07 01:12:23;;;;;;;8.73;7.30;;;;;;;;;;5053180;28;20418;-57
2022/03/07 01:14:50;;;;;;;10.10;7.23;;;;;;;;;;5051738;28;20719;-57
2022/03/07 01:17:16;;;;;;;8.40;6.73;;;;;;;;;;5050781;28;20959;-57
2022/03/07 01:19:42;;;;;;;9.27;6.90;;;;;;;;;;5053009;28;20422;-57
2022/03/07 01:22:08;;;;;;;8.63;6.87;;;;;;;;;;5051803;28;20877;-57
2022/03/07 01:24:36;;;;;;;8.33;6.57;;;;;;;;;;5070222;28;20259;-57
2022/03/07 01:27:03;;;;;;;8.07;6.53;;;;;;;;;;5042853;28;20510;-57
2022/03/07 01:29:29;;;;;;;9.47;7.30;;;;;;;;;;5069985;28;20797;-57
2022/03/07 01:31:55;;;;;;;7.57;6.03;;;;;;;;;;5052556;28;20172;-57
2022/03/07 01:34:24;;;;;;;8.97;7.23;;;;;;;;;;5051255;28;20232;-57
2022/03/07 01:36:51;;;;;;;8.83;6.97;;;;;;;;;;5070137;28;20418;-57
2022/03/07 01:39:17;;;;;;;7.80;6.23;;;;;;;;;;5056908;28;20431;-57
2022/03/07 01:41:43;;;;;;;7.23;5.93;;;;;;;;;;5052703;28;20407;-57
2022/03/07 01:44:17;;;;;;;8.03;5.93;;;;;;;;;;5064281;28;20754;-57
2022/03/07 01:46:43;;;;;;;9.67;5.90;;;;;;;;;;5065411;28;20454;-57
2022/03/07 01:49:09;;;;;;;7.87;6.07;;;;;;;;;;5069119;28;20624;-57
2022/03/07 01:51:36;;;;;;;6.77;6.07;;;;;;;;;;5049886;28;20545;-57
2022/03/07 01:54:02;;;;;;;7.20;6.27;;;;;;;;;;5051969;28;20628;-57
2022/03/07 01:56:29;;;;;;;10.07;6.80;;;;;;;;;;5051645;28;20446;-57
2022/03/07 01:58:55;;;;;;;8.30;6.30;;;;;;;;;;5051705;28;21001;-57
2022/03/07 02:01:21;;;;;;;8.00;6.33;;;;;;;;;;5050911;28;20787;-57
2022/03/07 02:03:47;;;;;;;7.53;6.33;;;;;;;;;;5070543;28;20426;-57
2022/03/07 02:06:14;;;;;;;7.70;6.30;;;;;;;;;;5050653;28;20426;-57
2022/03/07 02:08:40;;;;;;;7.97;6.90;;;;;;;;;;5038937;28;20187;-57
2022/03/07 02:11:07;;;;;;;7.90;5.40;;;;;;;;;;5050162;28;20517;-57
2022/03/07 02:13:36;;;;;;;7.07;5.93;;;;;;;;;;5051686;28;20434;-57
2022/03/07 02:16:02;;;;;;;7.77;6.47;;;;;;;;;;5068560;28;20177;-57
2022/03/07 02:18:30;;;;;;;10.07;6.63;;;;;;;;;;5066622;28;20423;-57
2022/03/07 02:20:58;;;;;;;8.03;6.00;;;;;;;;;;5063262;28;20978;-57
2022/03/07 02:23:25;;;;;;;8.30;6.60;;;;;;;;;;5057798;28;20191;-57
2022/03/07 02:25:51;;;;;;;8.17;6.17;;;;;;;;;;5046259;28;20801;-57
2022/03/07 02:28:18;;;;;;;7.00;6.30;;;;;;;;;;5069393;28;20432;-57
2022/03/07 02:30:44;;;;;;;7.53;6.40;;;;;;;;;;5069151;28;20430;-57
2022/03/07 02:33:13;;;;;;;10.53;6.20;;;;;;;;;;5051315;28;20439;-57
2022/03/07 02:35:40;;;;;;;9.53;5.67;;;;;;;;;;5062986;28;20538;-58
2022/03/07 02:38:12;;;;;;;7.67;5.83;;;;;;;;;;5068287;28;20510;-57
2022/03/07 02:40:39;;;;;;;8.63;6.30;;;;;;;;;;5041422;28;20427;-57
2022/03/07 02:43:05;;;;;;;7.17;6.20;;;;;;;;;;5068994;28;20728;-57
2022/03/07 02:45:31;;;;;;;8.57;6.30;;;;;;;;;;5044996;28;20180;-57
2022/03/07 02:47:57;;;;;;;9.80;6.67;;;;;;;;;;5050439;28;20506;-57
2022/03/07 02:50:24;;;;;;;7.40;6.07;;;;;;;;;;5042006;28;20431;-57
2022/03/07 02:52:50;;;;;;;7.97;5.93;;;;;;;;;;5049860;28;20489;-57
2022/03/07 02:55:16;;;;;;;7.00;6.10;;;;;;;;;;5040872;28;20454;-57
2022/03/07 02:57:42;;;;;;;7.47;6.20;;;;;;;;;;5067125;28;20441;-57
2022/03/07 03:00:09;;;;;;;8.20;6.53;;;;;;;;;;5061439;28;20423;-57
2022/03/07 03:02:35;;;;;;;9.53;6.57;;;;;;;;;;5050656;28;20427;-57
2022/03/07 03:05:02;;;;;;;6.93;6.23;;;;;;;;;;5044958;28;20830;-57
2022/03/07 03:07:28;;;;;;;7.13;6.03;;;;;;;;;;5049189;28;20714;-57
2022/03/07 03:09:55;;;;;;;8.07;6.57;;;;;;;;;;5051163;28;20530;-57
2022/03/07 03:12:24;;;;;;;8.00;6.73;;;;;;;;;;5043572;28;20461;-57
2022/03/07 03:14:50;;;;;;;6.97;6.27;;;;;;;;;;5048730;28;20492;-57
2022/03/07 03:17:17;;;;;;;7.23;6.47;;;;;;;;;;5031902;28;20751;-57
2022/03/07 03:19:43;;;;;;;7.90;7.03;;;;;;;;;;5057350;28;20480;-57
2022/03/07 03:22:09;;;;;;;6.77;5.60;;;;;;;;;;5047381;28;20208;-57
2022/03/07 03:24:35;;;;;;;8.40;5.93;;;;;;;;;;5042954;28;20628;-57
2022/03/07 03:27:01;;;;;;;7.80;6.20;;;;;;;;;;5067374;28;20430;-57
2022/03/07 03:29:27;;;;;;;10.67;6.07;;;;;;;;;;5048934;28;20292;-57
2022/03/07 03:31:53;;;;;;;6.83;6.03;;;;;;;;;;5038347;28;20446;-57
2022/03/07 03:34:19;;;;;;;7.73;6.43;;;;;;;;;;5068543;28;20467;-57
2022/03/07 03:36:59;;;;;;;10.10;6.33;;;;;;;;;;5048137;28;20187;-57
2022/03/07 03:39:25;;;;;;;7.23;5.90;;;;;;;;;;5047239;28;20526;-57
2022/03/07 03:41:52;;;;;;;8.67;6.40;;;;;;;;;;5049824;28;20544;-57
2022/03/07 03:44:18;;;;;;;7.23;6.33;;;;;;;;;;5071012;28;20870;-57
2022/03/07 03:46:44;;;;;;;7.60;6.20;;;;;;;;;;5066563;28;20573;-57
2022/03/07 03:49:10;;;;;;;7.17;6.07;;;;;;;;;;5046099;28;20439;-57
2022/03/07 03:51:37;;;;;;;7.07;6.37;;;;;;;;;;5046927;28;20439;-57
2022/03/07 03:54:03;;;;;;;9.90;6.27;;;;;;;;;;5072853;28;20948;-57
2022/03/07 03:56:30;;;;;;;7.00;5.93;;;;;;;;;;5043902;28;20532;-57
2022/03/07 03:58:56;;;;;;;10.63;6.43;;;;;;;;;;5050254;28;20426;-57
2022/03/07 04:01:22;;;;;;;6.93;6.23;;;;;;;;;;5048729;28;20418;-57
2022/03/07 04:03:48;;;;;;;7.33;5.60;;;;;;;;;;5052736;28;20897;-57
2022/03/07 04:06:15;;;;;;;8.87;6.17;;;;;;;;;;5048049;28;20426;-57
2022/03/07 04:08:41;;;;;;;7.83;6.40;;;;;;;;;;5044931;28;20473;-57
2022/03/07 04:11:07;;;;;;;8.97;6.30;;;;;;;;;;5063378;28;20984;-57
2022/03/07 04:13:33;;;;;;;7.37;6.00;;;;;;;;;;5078764;28;20426;-57
2022/03/07 04:16:01;;;;;;;8.60;6.23;;;;;;;;;;5087068;28;20911;-56
2022/03/07 04:18:27;;;;;;;7.77;6.57;;;;;;;;;;5068873;28;20417;-57
2022/03/07 04:20:53;;;;;;;8.33;6.60;;;;;;;;;;5067899;28;20413;-56
2022/03/07 04:23:21;;;;;;;8.40;6.37;;;;;;;;;;5049892;28;21003;-57
2022/03/07 04:25:48;;;;;;;6.97;6.27;;;;;;;;;;5068791;28;20426;-56
2022/03/07 04:28:14;;;;;;;8.30;6.53;;;;;;;;;;5069386;28;20891;-57
2022/03/07 04:30:41;;;;;;;7.87;6.60;;;;;;;;;;5085644;28;20432;-57
2022/03/07 04:33:08;;;;;;;8.50;6.07;;;;;;;;;;5087332;28;20528;-57
2022/03/07 04:35:35;;;;;;;10.43;6.40;;;;;;;;;;5052373;28;20837;-57
2022/03/07 04:38:01;;;;;;;8.47;6.37;;;;;;;;;;5068479;28;20852;-57
2022/03/07 04:40:28;;;;;;;8.90;6.67;;;;;;;;;;5064634;28;20428;-57
2022/03/07 04:42:57;;;;;;;6.67;6.07;;;;;;;;;;5086385;28;20418;-57
2022/03/07 04:45:25;;;;;;;6.70;6.00;;;;;;;;;;5086297;28;21026;-57
2022/03/07 04:47:51;;;;;;;6.03;5.37;;;;;;;;;;5086350;28;20417;-57
2022/03/07 04:50:17;;;;;;;7.43;5.90;;;;;;;;;;5069047;28;20471;-57
2022/03/07 04:52:44;;;;;;;7.47;5.93;;;;;;;;;;5090571;28;20448;-57
2022/03/07 04:55:11;;;;;;;8.37;6.23;;;;;;;;;;5086561;28;20455;-57
2022/03/07 04:57:37;;;;;;;7.10;6.27;;;;;;;;;;5084328;28;20448;-57
2022/03/07 05:00:05;;;;;;;9.60;5.97;;;;;;;;;;5081848;28;20415;-57
2022/03/07 05:02:31;;;;;;;8.27;6.57;;;;;;;;;;5077481;28;20418;-57
2022/03/07 05:04:57;;;;;;;7.67;6.23;;;;;;;;;;5068266;28;20448;-57
2022/03/07 05:07:24;;;;;;;8.30;7.37;;;;;;;;;;5067741;28;20418;-57
2022/03/07 05:09:50;;;;;;;7.40;6.30;;;;;;;;;;5068013;28;20440;-57
2022/03/07 05:12:16;;;;;;;7.50;5.77;;;;;;;;;;5063802;28;20418;-57
2022/03/07 05:14:42;;;;;;;7.37;5.97;;;;;;;;;;5085499;28;20550;-57
2022/03/07 05:17:09;;;;;;;7.47;6.20;;;;;;;;;;5086836;28;20406;-57
2022/03/07 05:19:35;;;;;;;7.53;6.17;;;;;;;;;;5085551;28;20932;-57
2022/03/07 05:22:01;;;;;;;6.23;5.63;;;;;;;;;;5067007;28;20884;-56
2022/03/07 05:24:27;;;;;;;8.70;6.60;;;;;;;;;;5081920;28;20418;-57
2022/03/07 05:26:54;;;;;;;7.40;6.10;;;;;;;;;;5067980;28;20421;-57
2022/03/07 05:29:20;;;;;;;7.43;6.63;;;;;;;;;;5068589;28;20424;-57
2022/03/07 05:31:46;;;;;;;8.47;6.43;;;;;;;;;;5076851;28;20443;-58
2022/03/07 05:34:16;;;;;;;6.80;5.83;;;;;;;;;;5065585;28;20465;-56
2022/03/07 05:36:42;;;;;;;8.37;6.00;;;;;;;;;;5066455;28;20758;-57
2022/03/07 05:39:10;;;;;;;7.50;5.53;;;;;;;;;;5086659;28;20927;-57
2022/03/07 05:41:37;;;;;;;7.77;6.27;;;;;;;;;;5063905;28;20478;-57
2022/03/07 05:44:03;;;;;;;6.77;6.03;;;;;;;;;;5065312;28;20570;-57
2022/03/07 05:46:30;;;;;;;7.23;6.50;;;;;;;;;;5065985;28;20789;-57
2022/03/07 05:48:57;;;;;;;6.63;5.73;;;;;;;;;;5057079;28;20440;-56
2022/03/07 05:51:24;;;;;;;7.73;6.10;;;;;;;;;;5076399;28;20461;-57
2022/03/07 05:53:51;;;;;;;6.73;6.03;;;;;;;;;;5071080;28;20895;-57
2022/03/07 05:56:17;;;;;;;7.43;6.07;;;;;;;;;;5075799;28;20859;-57
2022/03/07 05:58:43;;;;;;;8.13;6.73;;;;;;;;;;5096988;28;20769;-57
2022/03/07 06:01:10;;;;;;;6.87;5.97;;;;;;;;;;5079567;28;20418;-57
2022/03/07 06:03:36;;;;;;;8.47;5.93;;;;;;;;;;5067572;28;20563;-57
2022/03/07 06:06:02;;;;;;;7.20;6.50;;;;;;;;;;5088353;28;20473;-57
2022/03/07 06:08:28;;;;;;;7.20;6.07;;;;;;;;;;5065267;28;20417;-58
2022/03/07 06:10:57;;;;;;;6.90;6.07;;;;;;;;;;5090071;28;20887;-57
2022/03/07 06:13:24;;;;;;;10.03;6.70;;;;;;;;;;5072825;28;20183;-57
2022/03/07 06:15:50;;;;;;;8.43;5.63;;;;;;;;;;5074778;28;20445;-57
2022/03/07 06:18:16;;;;;;;6.93;6.20;;;;;;;;;;5091713;28;20421;-57
2022/03/07 06:20:42;;;;;;;6.33;5.63;;;;;;;;;;5108729;28;20424;-57
2022/03/07 06:23:08;;;;;;;8.80;6.27;;;;;;;;;;5081808;28;20488;-57
2022/03/07 06:25:35;;;;;;;6.27;5.57;;;;;;;;;;5089237;28;20421;-58
2022/03/07 06:28:02;;;;;;;7.23;6.00;;;;;;;;;;5071807;28;20414;-57
2022/03/07 06:30:28;;;;;;;6.77;5.93;;;;;;;;;;5052606;28;20877;-57
2022/03/07 06:32:54;;;;;;;6.73;5.73;;;;;;;;;;5085440;28;20775;-57
2022/03/07 06:35:21;;;;;;;8.80;6.47;;;;;;;;;;5068849;28;20723;-57
2022/03/07 06:37:48;;;;;;;7.27;5.80;;;;;;;;;;5089639;28;21199;-57
2022/03/07 06:40:14;;;;;;;6.77;6.17;;;;;;;;;;5051084;28;20810;-57
2022/03/07 06:42:41;;;;;;;8.13;6.07;;;;;;;;;;5080786;28;20415;-57
2022/03/07 06:45:07;;;;;;;7.97;6.53;;;;;;;;;;5078604;28;20421;-57
2022/03/07 06:47:34;;;;;;;8.70;5.83;;;;;;;;;;5093539;28;20448;-57
2022/03/07 06:50:00;;;;;;;6.50;5.67;;;;;;;;;;5096557;28;20425;-57
2022/03/07 06:52:27;;;;;;;6.47;5.80;;;;;;;;;;5077717;28;20430;-57
2022/03/07 06:54:53;;;;;;;8.70;6.40;;;;;;;;;;5067777;28;20574;-57
2022/03/07 06:57:23;;;;;;;7.47;6.50;;;;;;;;;;5076983;28;20501;-57
2022/03/07 06:59:50;;;;;;;6.60;6.00;;;;;;;;;;5068085;28;20414;-57
2022/03/07 07:02:16;;;;;;;7.00;6.30;;;;;;;;;;5093042;28;20787;-57
2022/03/07 07:04:43;;;;;;;7.40;6.67;;;;;;;;;;5087623;28;20999;-57
2022/03/07 07:07:09;;;;;;;8.73;6.00;;;;;;;;;;5080574;28;20777;-57
2022/03/07 07:09:36;;;;;;;8.47;6.00;;;;;;;;;;5088581;28;20512;-57
2022/03/07 07:12:02;;;;;;;7.07;6.27;;;;;;;;;;5070572;28;20469;-58
2022/03/07 07:14:29;;;;;;;7.00;5.57;;;;;;;;;;5071891;28;20980;-57
2022/03/07 07:16:55;;;;;;;7.57;6.37;;;;;;;;;;5080501;28;20512;-57
2022/03/07 07:19:22;;;;;;;7.17;5.97;;;;;;;;;;5071152;28;20521;-57
2022/03/07 07:21:48;;;;;;;7.17;6.43;;;;;;;;;;5087450;28;20414;-57
2022/03/07 07:24:14;;;;;;;7.90;5.50;;;;;;;;;;5082559;28;20462;-57
2022/03/07 07:26:43;;;;;;;10.67;6.90;;;;;;;;;;5095249;28;20421;-58
2022/03/07 07:29:10;;;;;;;8.13;6.17;;;;;;;;;;5069094;28;20425;-57
2022/03/07 07:31:36;;;;;;;7.53;6.30;;;;;;;;;;5070934;28;20938;-58
2022/03/07 07:34:02;;;;;;;8.53;5.63;;;;;;;;;;5081979;28;20688;-58
2022/03/07 07:36:28;;;;;;;7.03;5.77;;;;;;;;;;5099083;28;20416;-57
2022/03/07 07:38:55;;;;;;;8.90;6.43;;;;;;;;;;5103892;28;20873;-58
2022/03/07 07:41:21;;;;;;;7.83;6.77;;;;;;;;;;5108945;28;20462;-58
2022/03/07 07:43:49;;;;;;;6.70;6.00;;;;;;;;;;5086539;28;20421;-57
2022/03/07 07:46:15;;;;;;;9.57;6.60;;;;;;;;;;5091932;28;20432;-58
2022/03/07 07:48:41;;;;;;;9.47;7.13;;;;;;;;;;5086079;28;20407;-58
2022/03/07 07:51:07;;;;;;;7.17;6.20;;;;;;;;;;5066919;28;20606;-57
2022/03/07 07:53:34;;;;;;;6.93;5.93;;;;;;;;;;5070201;28;20399;-57
2022/03/07 07:56:02;;;;;;;7.97;6.17;;;;;;;;;;5070058;28;20453;-58
2022/03/07 07:58:31;;;;;;;8.23;6.83;;;;;;;;;;5087085;28;20814;-58
2022/03/07 08:00:57;;;;;;;6.80;5.60;;;;;;;;;;5093783;28;20428;-57
2022/03/07 08:03:23;;;;;;;7.10;5.13;;;;;;;;;;5060879;28;20430;-58
2022/03/07 08:05:50;;;;;;;7.07;6.23;;;;;;;;;;5086672;28;20509;-57
2022/03/07 08:08:22;;;;;;;7.30;6.43;;;;;;;;;;5088764;28;20437;-57
2022/03/07 08:10:48;;;;;;;7.20;6.27;;;;;;;;;;5049867;28;20573;-57
2022/03/07 08:13:14;;;;;;;6.73;5.40;;;;;;;;;;5064907;28;20944;-57
2022/03/07 08:15:41;;;;;;;7.77;6.30;;;;;;;;;;5069296;28;20464;-57
2022/03/07 08:18:07;;;;;;;7.47;5.93;;;;;;;;;;5073453;28;20828;-57
2022/03/07 08:20:36;;;;;;;8.53;6.00;;;;;;;;;;5086092;28;20414;-58
2022/03/07 08:23:03;;;;;;;6.07;4.93;;;;;;;;;;5075849;28;20462;-57
2022/03/07 08:25:32;;;;;;;7.27;5.83;;;;;;;;;;5088420;28;20923;-57
2022/03/07 08:27:59;;;;;;;6.07;5.47;;;;;;;;;;5087799;28;21022;-57
2022/03/07 08:30:33;;;;;;;6.80;5.43;;;;;;;;;;5068980;28;20472;-58
2022/03/07 08:33:00;;;;;;;5.40;4.90;;;;;;;;;;5107226;28;20466;-58
2022/03/07 08:35:26;;;;;;;6.20;5.60;;;;;;;;;;5089168;28;20489;-58
2022/03/07 08:37:53;;;;;;;7.17;4.93;;;;;;;;;;5087330;28;20440;-58
2022/03/07 08:40:21;;;;;;;5.87;5.27;;;;;;;;;;5087385;28;20488;-57
2022/03/07 08:42:48;;;;;;;7.03;4.80;;;;;;;;;;5077329;28;20418;-58
2022/03/07 08:45:17;;;;;;;5.50;4.57;;;;;;;;;;5091129;28;20420;-58
2022/03/07 08:47:43;;;;;;;5.73;4.23;;;;;;;;;;5086533;28;20770;-58
2022/03/07 08:50:10;;;;;;;4.47;4.07;;;;;;;;;;5073906;28;20956;-58
2022/03/07 08:52:37;;;;;;;5.00;3.90;;;;;;;;;;5086907;28;20463;-58
2022/03/07 08:55:04;;;;;;;6.37;3.73;;;;;;;;;;5072988;28;20449;-58
2022/03/07 08:57:34;;;;;;;4.23;3.33;;;;;;;;;;5080313;28;20971;-58
2022/03/07 09:00:00;;;;;;;4.20;3.77;;;;;;;;;;5090584;28;20417;-58
2022/03/07 09:02:26;;;;;;;4.37;3.70;;;;;;;;;;5069162;28;20433;-57
2022/03/07 09:04:52;;;;;;;3.87;3.47;;;;;;;;;;5075116;28;20760;-58
2022/03/07 09:07:18;;;;;;;5.13;3.73;;;;;;;;;;5077288;28;20422;-58
2022/03/07 09:09:44;;;;;;;4.47;3.80;;;;;;;;;;5068979;28;20232;-58
2022/03/07 09:12:10;;;;;;;4.03;3.10;;;;;;;;;;5086694;28;20465;-58
2022/03/07 09:14:36;;;;;;;3.43;3.13;;;;;;;;;;5085474;28;20876;-57
2022/03/07 09:17:03;;;;;;;3.87;3.27;;;;;;;;;;5069520;28;20771;-58
2022/03/07 09:19:29;;;;;;;4.30;3.90;;;;;;;;;;5086864;28;20425;-58
2022/03/07 09:21:55;;;;;;;3.77;3.40;;;;;;;;;;5085506;28;20224;-58
2022/03/07 09:24:23;;;;;;;5.33;3.40;;;;;;;;;;5070600;28;20430;-58
2022/03/07 09:26:49;;;;;;;3.37;2.93;;;;;;;;;;5075919;28;20428;-58
2022/03/07 09:29:15;;;;;;;4.17;3.23;;;;;;;;;;5090648;28;20172;-58
2022/03/07 09:31:41;;;;;;;5.70;3.10;;;;;;;;;;5090725;28;20402;-58
2022/03/07 09:34:08;;;;;;;2.80;2.60;;;;;;;;;;5072838;28;20229;-58
2022/03/07 09:36:36;;;;;;;2.83;2.63;;;;;;;;;;5080441;28;20182;-58
2022/03/07 09:39:02;;;;;;;3.80;2.80;;;;;;;;;;5082157;28;20622;-58
2022/03/07 09:41:29;;;;;;;2.97;2.70;;;;;;;;;;5102524;28;20175;-58
2022/03/07 09:43:55;;;;;;;3.17;2.87;;;;;;;;;;5091057;28;20204;-58
2022/03/07 09:46:21;;;;;;;2.93;2.63;;;;;;;;;;5090502;28;20171;-58
2022/03/07 09:48:47;;;;;;;3.60;2.67;;;;;;;;;;5091491;28;20168;-58
2022/03/07 09:51:14;;;;;;;3.80;2.60;;;;;;;;;;5088631;28;20881;-57
2022/03/07 09:53:40;;;;;;;2.97;2.73;;;;;;;;;;5090092;28;20296;-58
2022/03/07 09:56:06;;;;;;;3.33;2.80;;;;;;;;;;5088141;28;20298;-58
2022/03/07 09:58:32;;;;;;;3.03;2.73;;;;;;;;;;5087895;28;20179;-58
2022/03/07 10:01:19;;;;;;;2.70;2.50;;;;;;;;;;5070121;28;20172;-57
2022/03/07 10:03:55;;;;;;;;;;;;;;;;;;;;;
2022/03/07 10:06:22;;;;;;;2.90;2.70;;;;;;;;;;5089318;28;20167;-58
2022/03/07 10:08:52;;;;;;;2.87;2.37;;;;;;;;;;5086891;28;20176;-58
2022/03/07 10:11:18;;;;;;;2.73;2.53;;;;;;;;;;5070525;28;20207;-58
2022/03/07 10:13:55;;;;;;;2.90;2.70;;;;;;;;;;5089106;28;20179;-58
2022/03/07 10:16:21;;;;;;;2.83;2.53;;;;;;;;;;5090294;28;20551;-58
2022/03/07 10:18:51;;;;;;;2.90;2.60;;;;;;;;;;5088954;28;20187;-58
2022/03/07 10:21:24;;;;;;;3.30;2.67;;;;;;;;;;5089121;28;20164;-58
2022/03/07 10:23:52;;;;;;;3.23;2.53;;;;;;;;;;5072127;28;20621;-59
2022/03/07 10:26:18;;;;;;;3.23;2.63;;;;;;;;;;5090292;28;20214;-58
2022/03/07 10:28:51;;;;;;;2.80;2.50;;;;;;;;;;5084007;28;20183;-58
2022/03/07 10:31:19;;;;;;;2.77;2.40;;;;;;;;;;5090113;28;20622;-57
2022/03/07 10:33:46;;;;;;;2.80;2.50;;;;;;;;;;5071991;28;20179;-58
2022/03/07 10:36:12;;;;;;;3.53;2.93;;;;;;;;;;5088543;28;20624;-58
2022/03/07 10:38:38;;;;;;;2.93;2.63;;;;;;;;;;5072210;28;20256;-57
2022/03/07 10:41:05;;;;;;;2.33;2.20;;;;;;;;;;5083255;28;20183;-58
2022/03/07 10:43:31;;;;;;;2.90;2.60;;;;;;;;;;5089028;28;20233;-58
2022/03/07 10:45:59;;;;;;;2.33;2.13;;;;;;;;;;5083300;28;20221;-58
2022/03/07 10:48:27;;;;;;;3.57;2.50;;;;;;;;;;5088963;28;20192;-58
2022/03/07 10:50:57;;;;;;;2.97;2.57;;;;;;;;;;5088047;28;20172;-58
2022/03/07 10:53:23;;;;;;;2.63;2.43;;;;;;;;;;5071502;28;20176;-58
2022/03/07 10:55:54;;;;;;;2.70;2.50;;;;;;;;;;5066650;28;20685;-58
2022/03/07 10:58:22;;;;;;;2.47;2.23;;;;;;;;;;5086205;28;20211;-58
2022/03/07 11:00:49;;;;;;;2.90;2.47;;;;;;;;;;5083867;28;20168;-58
2022/03/07 11:03:19;;;;;;;2.60;2.40;;;;;;;;;;5068100;28;20645;-58
2022/03/07 11:05:45;;;;;;;2.50;2.30;;;;;;;;;;5088730;28;20184;-58
2022/03/07 11:08:14;;;;;;;3.10;2.53;;;;;;;;;;5089480;28;20171;-58
2022/03/07 11:10:44;;;;;;;2.87;2.40;;;;;;;;;;5070579;28;20239;-58
2022/03/07 11:13:11;;;;;;;3.43;2.37;;;;;;;;;;5056493;28;20748;-58
2022/03/07 11:15:38;;;;;;;2.53;2.30;;;;;;;;;;5090044;28;20207;-58
2022/03/07 11:18:04;;;;;;;2.70;2.37;;;;;;;;;;5074142;28;20188;-58
2022/03/07 11:20:31;;;;;;;2.30;2.07;;;;;;;;;;5068588;28;20529;-58
2022/03/07 11:22:57;;;;;;;4.67;2.37;;;;;;;;;;5109163;28;20171;-58
2022/03/07 11:25:28;;;;;;;2.80;2.40;;;;;;;;;;5073800;28;20274;-58
2022/03/07 11:27:56;;;;;;;2.67;2.47;;;;;;;;;;5054374;28;20179;-58
2022/03/07 11:30:24;;;;;;;3.00;2.70;;;;;;;;;;5070061;28;20199;-58
2022/03/07 11:32:51;;;;;;;2.83;2.47;;;;;;;;;;5088219;28;20192;-58
2022/03/07 11:35:18;;;;;;;2.23;2.00;;;;;;;;;;5065897;28;20212;-58
2022/03/07 11:37:44;;;;;;;2.33;2.07;;;;;;;;;;5050464;28;20172;-58
2022/03/07 11:40:29;;;;;;;3.53;2.30;;;;;;;;;;5065291;28;20180;-58
2022/03/07 11:42:55;;;;;;;2.57;2.37;;;;;;;;;;5070566;28;20293;-58
2022/03/07 11:45:22;;;;;;;3.80;2.17;;;;;;;;;;5070747;28;20233;-58
2022/03/07 11:47:49;;;;;;;3.80;2.20;;;;;;;;;;5088739;28;20226;-58
2022/03/07 11:50:19;;;;;;;2.33;2.13;;;;;;;;;;5087969;28;20706;-63
2022/03/07 11:52:46;;;;;;;2.43;2.23;;;;;;;;;;5077745;28;20190;-58
2022/03/07 11:55:16;;;;;;;2.97;2.43;;;;;;;;;;5053373;28;20261;-58
2022/03/07 11:57:46;;;;;;;2.67;2.47;;;;;;;;;;5089018;28;20846;-58
2022/03/07 12:00:12;;;;;;;2.33;2.13;;;;;;;;;;5057801;28;20201;-58
2022/03/07 12:02:40;;;;;;;5.60;2.27;;;;;;;;;;5070293;28;20583;-58
2022/03/07 12:05:06;;;;;;;2.43;2.23;;;;;;;;;;5074305;28;20196;-58
2022/03/07 12:07:38;;;;;;;2.27;2.00;;;;;;;;;;5072794;28;20305;-58
2022/03/07 12:10:08;;;;;;;2.50;2.20;;;;;;;;;;5073997;28;20188;-58
2022/03/07 12:12:34;;;;;;;4.00;2.20;;;;;;;;;;5091578;28;20650;-59
2022/03/07 12:15:07;;;;;;;3.23;2.10;;;;;;;;;;5087336;28;20224;-58
2022/03/07 12:17:33;;;;;;;2.40;2.10;;;;;;;;;;5087867;28;20178;-58
2022/03/07 12:20:02;;;;;;;2.40;2.20;;;;;;;;;;5087211;28;20187;-56
2022/03/07 12:22:34;;;;;;;2.50;2.30;;;;;;;;;;5086474;28;20244;-58
2022/03/07 12:25:01;;;;;;;3.43;2.20;;;;;;;;;;5063059;28;20180;-58
2022/03/07 12:27:27;;;;;;;2.30;2.03;;;;;;;;;;5070576;28;20187;-58
2022/03/07 12:29:54;;;;;;;2.27;2.07;;;;;;;;;;5087297;28;20183;-58
2022/03/07 12:32:20;;;;;;;2.47;2.27;;;;;;;;;;5087380;28;20179;-56
2022/03/07 12:34:47;;;;;;;2.87;1.90;;;;;;;;;;5087162;28;20195;-56
2022/03/07 12:37:20;;;;;;;2.70;2.23;;;;;;;;;;5086534;28;20203;-56
2022/03/07 12:39:51;;;;;;;2.30;2.10;;;;;;;;;;5089076;28;20183;-56
2022/03/07 12:42:18;;;;;;;2.20;1.90;;;;;;;;;;5088052;28;20267;-56
2022/03/07 12:44:45;;;;;;;2.43;2.23;;;;;;;;;;5079481;28;20745;-58
2022/03/07 12:47:11;;;;;;;2.97;2.20;;;;;;;;;;5067525;28;20179;-58
2022/03/07 12:49:38;;;;;;;3.10;2.03;;;;;;;;;;5087476;28;20194;-58
2022/03/07 12:52:08;;;;;;;2.30;2.10;;;;;;;;;;5085045;28;20182;-58
2022/03/07 12:54:36;;;;;;;2.70;2.00;;;;;;;;;;5087519;28;20670;-58
2022/03/07 12:57:02;;;;;;;2.37;2.17;;;;;;;;;;5088584;28;20191;-58
2022/03/07 12:59:30;;;;;;;2.70;2.50;;;;;;;;;;5077120;28;20592;-58
2022/03/07 13:01:59;;;;;;;2.30;2.10;;;;;;;;;;5071384;28;20657;-58
2022/03/07 13:04:27;;;;;;;2.60;2.40;;;;;;;;;;5061629;28;20215;-56
2022/03/07 13:06:55;;;;;;;2.37;2.17;;;;;;;;;;5085720;28;20179;-58
2022/03/07 13:09:29;;;;;;;2.33;1.80;;;;;;;;;;5087199;28;20651;-56
2022/03/07 13:11:56;;;;;;;2.60;2.10;;;;;;;;;;5098956;28;20302;-58
2022/03/07 13:14:25;;;;;;;2.20;2.00;;;;;;;;;;5078971;28;20206;-58
2022/03/07 13:16:52;;;;;;;2.20;2.00;;;;;;;;;;5084780;28;20172;-58
2022/03/07 13:19:20;;;;;;;2.20;2.00;;;;;;;;;;5087273;28;20203;-58
2022/03/07 13:21:46;;;;;;;2.47;2.27;;;;;;;;;;5058132;28;20296;-59
2022/03/07 13:24:20;;;;;;;3.33;2.27;;;;;;;;;;5056724;28;20171;-56
2022/03/07 13:27:01;;;;;;;2.53;2.03;;;;;;;;;;5090979;28;20553;-56
2022/03/07 13:29:27;;;;;;;2.40;2.20;;;;;;;;;;5066505;28;20654;-56
2022/03/07 13:32:14;;;;;;;2.20;2.00;;;;;;;;;;5087412;28;20175;-58
2022/03/07 13:34:53;;;;;;;2.47;2.10;;;;;;;;;;5087046;28;20205;-58
2022/03/07 13:37:40;;;;;;;3.13;2.17;;;;;;;;;;5085961;28;20669;-58
2022/03/07 13:40:07;;;;;;;2.50;2.30;;;;;;;;;;5072245;28;20176;-59
2022/03/07 13:42:53;;;;;;;2.30;2.10;;;;;;;;;;5091738;28;20179;-58
2022/03/07 13:45:20;;;;;;;3.77;2.30;;;;;;;;;;5070460;28;20996;-58
2022/03/07 13:48:02;;;;;;;2.20;2.00;;;;;;;;;;5081248;28;20202;-59
2022/03/07 13:50:29;;;;;;;2.50;2.30;;;;;;;;;;5088793;28;20294;-58
2022/03/07 13:53:08;;;;;;;2.43;2.23;;;;;;;;;;5052804;28;20666;-56
2022/03/07 13:55:45;;;;;;;2.70;2.50;;;;;;;;;;5087593;28;20286;-58
2022/03/07 13:58:18;;;;;;;2.30;2.10;;;;;;;;;;5079871;28;20564;-58
2022/03/07 14:00:45;;;;;;;2.27;2.07;;;;;;;;;;5069285;28;20179;-56
2022/03/07 14:03:12;;;;;;;2.77;2.57;;;;;;;;;;5080523;28;20259;-56
2022/03/07 14:05:49;;;;;;;3.43;2.17;;;;;;;;;;5095570;28;20187;-56
2022/03/07 14:08:16;;;;;;;2.27;2.10;;;;;;;;;;5072736;28;20663;-56
2022/03/07 14:10:43;;;;;;;2.33;2.13;;;;;;;;;;5071434;28;20983;-57
2022/03/07 14:13:09;;;;;;;3.03;2.10;;;;;;;;;;5089893;28;20180;-56
2022/03/07 14:15:40;;;;;;;2.53;2.10;;;;;;;;;;5070665;28;20628;-57
2022/03/07 14:18:06;;;;;;;3.33;1.97;;;;;;;;;;5090415;28;20183;-56
2022/03/07 14:20:38;;;;;;;3.07;2.57;;;;;;;;;;5071008;28;20186;-56
2022/03/07 14:23:04;;;;;;;2.13;2.03;;;;;;;;;;5089087;28;20179;-57
2022/03/07 14:25:31;;;;;;;4.73;2.43;;;;;;;;;;5089802;28;20184;-57
2022/03/07 14:28:04;;;;;;;3.97;2.20;;;;;;;;;;5096403;28;20189;-57
2022/03/07 14:30:33;;;;;;;3.00;2.30;;;;;;;;;;5089648;28;20591;-56
2022/03/07 14:33:00;;;;;;;2.40;2.20;;;;;;;;;;5068854;28;20610;-56
2022/03/07 14:35:26;;;;;;;2.83;2.50;;;;;;;;;;5089092;28;20200;-56
2022/03/07 14:37:54;;;;;;;3.33;2.37;;;;;;;;;;5098591;28;20631;-57
2022/03/07 14:40:23;;;;;;;3.70;2.23;;;;;;;;;;5088071;28;20609;-58
2022/03/07 14:42:50;;;;;;;2.70;2.50;;;;;;;;;;5074828;28;20540;-56
2022/03/07 14:45:18;;;;;;;2.70;2.50;;;;;;;;;;5075479;28;20526;-56